Time;durP1;ratioP1;P1;durP2;ratioP2;P2;SDS_P1;SDS_P2;PMS_P1;PMS_P2;Temp;Humidity;BMP_temperature;BMP_pressure;BME280_temperature;BME280_humidity;BME280_pressure;Samples;Min_cycle;Max_cycle;Signal;HPM_P1;HPM_P2
2022/04/14 00:01:22;;;;;;;6.88;4.47;;;12.50;1.00;;;;;;4999851;28;20055;-89
2022/04/14 00:03:47;;;;;;;7.47;4.13;;;12.50;1.00;;;;;;4999466;28;20037;-89
2022/04/14 00:06:13;;;;;;;9.95;4.38;;;12.30;1.00;;;;;;4999582;28;20029;-89
2022/04/14 00:08:39;;;;;;;7.00;4.00;;;12.10;1.00;;;;;;4995233;28;20028;-90
2022/04/14 00:11:04;;;;;;;7.95;3.88;;;12.20;1.00;;;;;;4998594;28;20518;-89
2022/04/14 00:13:30;;;;;;;8.32;4.50;;;12.40;1.00;;;;;;4999705;28;20031;-90
2022/04/14 00:15:56;;;;;;;9.40;4.25;;;12.60;1.00;;;;;;5000001;28;20471;-89
2022/04/14 00:18:22;;;;;;;7.63;4.32;;;12.70;1.00;;;;;;4999141;28;20525;-90
2022/04/14 00:20:47;;;;;;;8.27;4.63;;;12.80;1.00;;;;;;4995832;28;20054;-89
2022/04/14 00:23:13;;;;;;;10.40;4.82;;;12.70;1.00;;;;;;4996730;28;20026;-90
2022/04/14 00:25:39;;;;;;;9.63;4.47;;;12.70;1.00;;;;;;4999571;28;20426;-90
2022/04/14 00:28:04;;;;;;;6.55;4.13;;;12.80;1.00;;;;;;4999481;28;20478;-90
2022/04/14 00:30:30;;;;;;;5.38;4.13;;;12.90;1.00;;;;;;4998937;28;20026;-90
2022/04/14 00:32:56;;;;;;;10.48;4.63;;;12.70;1.00;;;;;;4997437;28;20072;-89
2022/04/14 00:35:21;;;;;;;8.05;4.30;;;12.70;1.00;;;;;;4996677;28;20041;-89
2022/04/14 00:37:47;;;;;;;7.50;3.90;;;12.80;1.00;;;;;;4997909;28;20037;-90
2022/04/14 00:40:13;;;;;;;9.50;4.60;;;12.70;1.00;;;;;;4999216;28;20073;-89
2022/04/14 00:42:39;;;;;;;7.85;4.13;;;12.60;1.00;;;;;;4999205;28;20034;-89
2022/04/14 00:45:06;;;;;;;9.07;4.45;;;12.60;1.00;;;;;;4997978;28;20405;-89
2022/04/14 00:47:34;;;;;;;10.43;4.43;;;12.60;1.00;;;;;;4994916;28;20518;-89
2022/04/14 00:49:59;;;;;;;14.57;6.03;;;12.70;1.00;;;;;;4998004;28;20034;-89
2022/04/14 00:52:26;;;;;;;18.58;8.13;;;12.80;1.00;;;;;;4998522;28;20018;-89
2022/04/14 00:54:51;;;;;;;10.98;5.00;;;12.70;1.00;;;;;;4998647;28;20132;-89
2022/04/14 00:57:17;;;;;;;8.30;4.20;;;12.70;1.00;;;;;;4998564;28;20018;-89
2022/04/14 00:59:43;;;;;;;6.57;4.07;;;12.60;1.00;;;;;;4995256;28;20511;-89
2022/04/14 01:02:09;;;;;;;9.35;4.22;;;12.60;1.00;;;;;;4997456;28;20042;-88
2022/04/14 01:04:35;;;;;;;6.53;4.07;;;12.50;1.00;;;;;;5006917;28;20042;-89
2022/04/14 01:07:01;;;;;;;6.85;4.78;;;12.60;1.00;;;;;;5002810;28;20034;-89
2022/04/14 01:09:28;;;;;;;10.43;4.45;;;12.60;1.00;;;;;;4998507;28;20030;-89
2022/04/14 01:11:55;;;;;;;11.75;4.57;;;12.50;1.00;;;;;;4996588;28;20113;-89
2022/04/14 01:14:35;;;;;;;9.57;4.60;;;12.60;1.00;;;;;;4996367;28;20039;-90
2022/04/14 01:17:06;;;;;;;10.75;4.93;;;12.60;1.00;;;;;;4997271;28;20569;-89
2022/04/14 01:19:33;;;;;;;10.20;4.85;;;12.50;1.00;;;;;;4998091;28;20030;-89
2022/04/14 01:22:22;;;;;;;9.50;4.90;;;12.40;1.00;;;;;;4997808;28;20521;-90
2022/04/14 01:24:48;;;;;;;14.10;4.55;;;12.40;1.00;;;;;;4998028;28;20368;-90
2022/04/14 01:27:14;;;;;;;9.18;4.50;;;12.40;1.00;;;;;;4998435;28;20044;-89
2022/04/14 01:29:39;;;;;;;8.05;4.35;;;12.60;1.00;;;;;;4994248;28;20018;-89
2022/04/14 01:32:06;;;;;;;6.68;4.13;;;12.50;1.00;;;;;;4997409;28;20442;-90
2022/04/14 01:34:31;;;;;;;10.20;4.95;;;12.50;1.00;;;;;;4997778;28;20113;-90
2022/04/14 01:36:58;;;;;;;8.00;4.85;;;12.40;1.00;;;;;;4997347;28;20113;-89
2022/04/14 01:39:24;;;;;;;6.95;4.53;;;12.50;1.00;;;;;;4997926;28;20030;-90
2022/04/14 01:41:50;;;;;;;8.02;4.90;;;12.30;1.00;;;;;;4995340;28;20162;-89
2022/04/14 01:44:16;;;;;;;11.82;5.47;;;12.20;1.00;;;;;;4995257;28;20040;-90
2022/04/14 01:46:41;;;;;;;9.90;5.30;;;12.30;1.00;;;;;;4997253;28;20026;-90
2022/04/14 01:49:11;;;;;;;14.30;5.35;;;12.40;1.00;;;;;;4997803;28;20030;-89
2022/04/14 01:51:37;;;;;;;9.43;4.18;;;12.40;1.00;;;;;;4996997;28;20029;-89
2022/04/14 01:54:04;;;;;;;10.13;4.70;;;12.30;1.00;;;;;;4997341;28;20117;-89
2022/04/14 01:56:30;;;;;;;8.82;4.60;;;12.20;1.00;;;;;;4994296;28;20018;-89
2022/04/14 01:58:57;;;;;;;9.88;4.72;;;12.20;1.00;;;;;;4996708;28;20384;-90
2022/04/14 02:01:22;;;;;;;8.52;4.63;;;12.30;1.00;;;;;;4997752;28;20081;-89
2022/04/14 02:03:49;;;;;;;8.27;4.97;;;12.20;1.00;;;;;;4997437;28;20034;-89
2022/04/14 02:06:15;;;;;;;8.75;4.55;;;12.10;1.00;;;;;;4997361;28;20030;-89
2022/04/14 02:08:42;;;;;;;8.38;4.60;;;12.00;1.00;;;;;;4993572;28;20121;-90
2022/04/14 02:11:08;;;;;;;8.38;4.13;;;12.10;1.00;;;;;;4978522;28;20022;-89
2022/04/14 02:13:34;;;;;;;7.93;4.60;;;12.10;1.00;;;;;;5006043;28;20057;-90
2022/04/14 02:16:01;;;;;;;15.95;7.22;;;12.20;1.00;;;;;;4988801;28;20061;-89
2022/04/14 02:18:26;;;;;;;14.05;6.95;;;12.40;1.00;;;;;;4987680;28;20498;-89
2022/04/14 02:20:52;;;;;;;11.65;5.43;;;12.20;1.00;;;;;;4994705;28;20028;-89
2022/04/14 02:23:18;;;;;;;7.38;5.00;;;12.20;1.00;;;;;;4994610;28;20035;-90
2022/04/14 02:25:45;;;;;;;10.63;5.50;;;12.10;1.00;;;;;;4997015;28;20018;-90
2022/04/14 02:28:11;;;;;;;12.10;4.82;;;12.00;1.00;;;;;;4997151;28;20049;-89
2022/04/14 02:30:37;;;;;;;7.93;4.95;;;12.10;1.00;;;;;;4997219;28;20022;-90
2022/04/14 02:33:03;;;;;;;13.77;5.10;;;12.00;1.00;;;;;;4996172;28;20026;-90
2022/04/14 02:35:29;;;;;;;11.88;4.47;;;12.00;1.00;;;;;;4994553;28;20068;-90
2022/04/14 02:37:57;;;;;;;9.00;4.68;;;12.00;1.00;;;;;;4996347;28;20602;-90
2022/04/14 02:40:24;;;;;;;7.90;4.47;;;12.00;1.00;;;;;;4996893;28;20501;-90
2022/04/14 02:42:54;;;;;;;11.70;4.80;;;11.90;1.00;;;;;;4997130;28;20446;-90
2022/04/14 02:45:24;;;;;;;7.88;4.20;;;11.90;1.00;;;;;;4996918;28;20022;-89
2022/04/14 02:47:50;;;;;;;10.45;4.38;;;12.00;1.00;;;;;;4994299;28;20046;-89
2022/04/14 02:50:15;;;;;;;10.38;4.78;;;12.00;1.00;;;;;;4978202;28;20023;-89
2022/04/14 02:52:41;;;;;;;9.18;4.82;;;11.90;1.00;;;;;;4996765;28;20419;-90
2022/04/14 02:55:08;;;;;;;8.15;4.70;;;11.80;1.00;;;;;;4999331;28;20032;-89
2022/04/14 02:57:34;;;;;;;8.80;4.78;;;11.80;1.00;;;;;;5000788;28;20038;-89
2022/04/14 03:00:00;;;;;;;9.40;5.07;;;11.70;1.00;;;;;;4981976;28;20034;-90
2022/04/14 03:02:25;;;;;;;7.95;4.97;;;11.70;1.00;;;;;;4997355;28;20414;-89
2022/04/14 03:04:53;;;;;;;8.70;4.80;;;11.60;1.00;;;;;;4999412;28;20081;-89
2022/04/14 03:07:19;;;;;;;8.70;4.90;;;11.70;1.00;;;;;;5001102;28;20034;-89
2022/04/14 03:09:45;;;;;;;6.85;4.63;;;11.70;1.00;;;;;;4982808;28;20073;-90
2022/04/14 03:12:12;;;;;;;11.52;5.05;;;11.40;1.00;;;;;;5000870;28;20022;-90
2022/04/14 03:14:37;;;;;;;10.13;4.55;;;11.70;1.00;;;;;;4996427;28;20024;-90
2022/04/14 03:17:04;;;;;;;9.55;4.72;;;11.80;1.00;;;;;;5010618;28;20037;-89
2022/04/14 03:19:29;;;;;;;9.50;4.82;;;11.80;1.00;;;;;;5008713;28;20108;-90
2022/04/14 03:21:55;;;;;;;11.27;5.30;;;11.80;1.00;;;;;;5008836;28;20562;-89
2022/04/14 03:24:20;;;;;;;8.75;4.95;;;11.60;1.00;;;;;;4990838;28;20036;-89
2022/04/14 03:26:46;;;;;;;8.88;5.28;;;11.50;1.00;;;;;;5011707;28;20029;-90
2022/04/14 03:29:11;;;;;;;11.00;5.60;;;11.60;1.00;;;;;;5011018;28;20501;-90
2022/04/14 03:31:38;;;;;;;8.10;5.05;;;11.70;1.00;;;;;;5008708;28;20056;-90
2022/04/14 03:34:03;;;;;;;10.48;5.28;;;11.60;1.00;;;;;;5008433;28;20037;-90
2022/04/14 03:36:29;;;;;;;14.10;5.65;;;11.50;1.00;;;;;;5008509;28;20419;-90
2022/04/14 03:38:54;;;;;;;7.63;5.20;;;11.40;1.00;;;;;;5011491;28;20406;-90
2022/04/14 03:41:20;;;;;;;9.95;5.43;;;11.50;1.00;;;;;;4997907;28;20106;-89
2022/04/14 03:43:46;;;;;;;8.93;5.47;;;11.40;1.00;;;;;;4999226;28;20476;-90
2022/04/14 03:46:14;;;;;;;13.07;5.28;;;11.40;1.00;;;;;;4999885;28;20038;-90
2022/04/14 03:48:41;;;;;;;12.10;5.65;;;11.40;1.00;;;;;;4999312;28;20383;-90
2022/04/14 03:51:07;;;;;;;10.45;5.38;;;11.40;1.00;;;;;;4999407;28;20026;-90
2022/04/14 03:53:33;;;;;;;8.48;5.38;;;11.50;1.00;;;;;;4995434;28;20033;-90
2022/04/14 03:55:58;;;;;;;8.50;5.93;;;11.60;1.00;;;;;;5013829;28;20490;-93
2022/04/14 03:58:24;;;;;;;8.55;5.40;;;11.40;1.00;;;;;;5010846;28;20030;-96
2022/04/14 04:00:49;;;;;;;9.45;5.70;;;11.50;1.00;;;;;;4996451;28;20490;-96
2022/04/14 04:03:15;;;;;;;11.50;5.47;;;11.50;1.00;;;;;;4983878;28;20054;-96
2022/04/14 04:05:41;;;;;;;12.13;5.93;;;11.30;1.00;;;;;;4984220;28;20026;-96
2022/04/14 04:08:07;;;;;;;10.90;5.75;;;11.20;1.00;;;;;;4984699;28;20034;-96
2022/04/14 04:10:33;;;;;;;11.13;5.72;;;11.10;1.00;;;;;;5013592;28;20034;-96
2022/04/14 04:13:01;;;;;;;12.40;5.65;;;11.20;1.00;;;;;;5012498;28;20403;-96
2022/04/14 04:15:28;;;;;;;10.07;5.88;;;11.30;1.00;;;;;;4988520;28;20038;-96
2022/04/14 04:17:54;;;;;;;11.10;5.70;;;11.40;1.00;;;;;;5018888;28;20037;-94
2022/04/14 04:20:22;;;;;;;11.77;6.18;;;11.20;1.00;;;;;;5015519;28;20018;-94
2022/04/14 04:22:48;;;;;;;9.23;5.47;;;11.10;1.00;;;;;;4995487;28;20041;-95
2022/04/14 04:25:14;;;;;;;8.60;5.63;;;11.20;1.00;;;;;;5005922;28;20027;-91
2022/04/14 04:27:39;;;;;;;9.13;5.78;;;11.30;1.00;;;;;;5007143;28;20434;-93
2022/04/14 04:30:07;;;;;;;11.73;5.75;;;11.40;1.00;;;;;;5010754;28;20029;-91
2022/04/14 04:32:33;;;;;;;9.23;5.40;;;11.30;1.00;;;;;;4995295;28;20040;-90
2022/04/14 04:35:03;;;;;;;8.10;5.80;;;11.20;1.00;;;;;;4998351;28;20026;-90
2022/04/14 04:37:29;;;;;;;11.05;6.00;;;11.10;1.00;;;;;;4981505;28;20067;-93
2022/04/14 04:39:56;;;;;;;11.18;6.50;;;11.50;1.00;;;;;;4981419;28;20034;-90
2022/04/14 04:42:21;;;;;;;15.13;6.55;;;11.30;1.00;;;;;;4981557;28;20038;-92
2022/04/14 04:44:47;;;;;;;11.32;6.38;;;11.10;1.00;;;;;;4995391;28;20081;-92
2022/04/14 04:47:13;;;;;;;11.10;6.15;;;11.10;1.00;;;;;;4979909;28;20038;-92
2022/04/14 04:49:38;;;;;;;11.00;6.55;;;11.10;1.00;;;;;;5006406;28;20072;-92
2022/04/14 04:52:04;;;;;;;10.68;5.97;;;11.10;1.00;;;;;;5007159;28;20083;-92
2022/04/14 04:54:30;;;;;;;10.70;5.78;;;11.20;1.00;;;;;;5006730;28;20029;-92
2022/04/14 04:56:56;;;;;;;10.32;5.72;;;11.20;1.00;;;;;;5009437;28;20038;-92
2022/04/14 04:59:21;;;;;;;18.13;7.10;;;11.20;1.00;;;;;;4978611;28;20030;-92
2022/04/14 05:01:47;;;;;;;9.70;6.78;;;11.10;1.00;;;;;;4991036;28;20087;-92
2022/04/14 05:04:13;;;;;;;10.50;5.97;;;11.00;1.00;;;;;;5006522;28;20037;-92
2022/04/14 05:06:39;;;;;;;12.65;6.63;;;11.20;1.00;;;;;;5006937;28;20030;-92
2022/04/14 05:09:05;;;;;;;14.68;6.63;;;11.20;1.00;;;;;;5009904;28;20021;-92
2022/04/14 05:11:30;;;;;;;13.98;6.72;;;11.20;1.00;;;;;;4995208;28;20029;-92
2022/04/14 05:13:56;;;;;;;14.93;6.60;;;11.10;1.00;;;;;;4998037;28;20101;-92
2022/04/14 05:16:22;;;;;;;12.68;6.35;;;11.10;1.00;;;;;;4998181;28;20030;-92
2022/04/14 05:18:48;;;;;;;9.65;6.68;;;11.40;1.00;;;;;;4997962;28;20038;-92
2022/04/14 05:21:14;;;;;;;12.07;7.03;;;11.40;1.00;;;;;;4998347;28;20109;-93
2022/04/14 05:23:40;;;;;;;14.05;7.00;;;11.20;1.00;;;;;;4994503;28;20093;-92
2022/04/14 05:26:06;;;;;;;14.75;8.45;;;11.20;1.00;;;;;;4997695;28;20034;-92
2022/04/14 05:28:32;;;;;;;13.15;6.72;;;11.20;1.00;;;;;;4998284;28;20507;-92
2022/04/14 05:30:57;;;;;;;12.05;6.47;;;11.10;1.00;;;;;;5001519;28;20022;-92
2022/04/14 05:33:23;;;;;;;12.73;7.05;;;11.20;1.00;;;;;;4988220;28;20156;-92
2022/04/14 05:35:49;;;;;;;12.50;6.72;;;11.20;1.00;;;;;;4993067;28;20029;-92
2022/04/14 05:38:15;;;;;;;12.68;6.28;;;11.30;1.00;;;;;;5008676;28;20038;-92
2022/04/14 05:40:43;;;;;;;18.77;7.13;;;11.20;1.00;;;;;;5006930;28;20564;-92
2022/04/14 05:43:18;;;;;;;13.25;7.15;;;11.30;1.00;;;;;;5005961;28;20030;-92
2022/04/14 05:45:44;;;;;;;13.18;7.45;;;11.40;1.00;;;;;;5006194;28;20067;-92
2022/04/14 05:48:19;;;;;;;12.93;6.93;;;11.50;1.00;;;;;;5006631;28;20081;-92
2022/04/14 05:50:46;;;;;;;13.93;7.22;;;11.50;1.00;;;;;;4994771;28;20023;-93
2022/04/14 05:53:12;;;;;;;14.82;7.50;;;11.50;1.00;;;;;;4996026;28;20121;-92
2022/04/14 05:55:38;;;;;;;14.75;6.90;;;11.50;1.00;;;;;;5006581;28;20106;-92
2022/04/14 05:58:05;;;;;;;11.70;7.15;;;11.40;1.00;;;;;;5005454;28;20569;-92
2022/04/14 06:00:35;;;;;;;12.73;7.82;;;11.40;1.00;;;;;;5005848;28;20129;-92
2022/04/14 06:03:02;;;;;;;20.83;8.07;;;11.20;1.00;;;;;;4990927;28;20053;-93
2022/04/14 06:05:31;;;;;;;13.88;7.25;;;11.00;1.00;;;;;;4978651;28;20026;-93
2022/04/14 06:07:57;;;;;;;14.57;7.93;;;11.10;1.00;;;;;;4990162;28;20116;-92
2022/04/14 06:10:24;;;;;;;13.93;6.68;;;11.20;1.00;;;;;;4987346;28;20130;-92
2022/04/14 06:12:50;;;;;;;13.73;6.95;;;11.40;1.00;;;;;;4985840;28;20062;-93
2022/04/14 06:15:17;;;;;;;17.15;8.15;;;11.50;1.00;;;;;;4997625;28;20045;-92
2022/04/14 06:17:43;;;;;;;16.23;7.50;;;11.50;1.00;;;;;;4993456;28;20055;-93
2022/04/14 06:20:10;;;;;;;15.27;7.88;;;11.60;1.00;;;;;;4996023;28;20460;-92
2022/04/14 06:22:44;;;;;;;19.73;7.80;;;11.70;1.00;;;;;;5006159;28;20130;-88
2022/04/14 06:25:16;;;;;;;14.07;7.65;;;11.90;1.00;;;;;;5005797;28;20033;-87
2022/04/14 06:27:46;;;;;;;12.60;7.28;;;12.00;1.00;;;;;;4986300;28;20027;-87
2022/04/14 06:30:18;;;;;;;16.17;7.65;;;12.00;1.00;;;;;;4997320;28;20189;-90
2022/04/14 06:32:58;;;;;;;14.35;7.88;;;12.10;1.00;;;;;;4993710;28;20109;-87
2022/04/14 06:35:24;;;;;;;13.18;8.20;;;12.20;1.00;;;;;;4995559;28;20109;-91
2022/04/14 06:37:50;;;;;;;17.83;8.80;;;12.30;1.00;;;;;;4996070;28;20038;-90
2022/04/14 06:40:15;;;;;;;18.27;8.82;;;12.30;1.00;;;;;;4996681;28;20034;-91
2022/04/14 06:42:41;;;;;;;16.88;10.20;;;12.30;1.00;;;;;;4996938;28;20061;-91
2022/04/14 06:45:07;;;;;;;23.98;10.18;;;12.30;1.00;;;;;;4996944;28;20041;-90
2022/04/14 06:47:33;;;;;;;19.15;10.02;;;12.40;1.00;;;;;;4993564;28;20031;-90
2022/04/14 06:49:59;;;;;;;18.92;9.80;;;12.40;1.00;;;;;;4996436;28;20077;-91
2022/04/14 06:52:24;;;;;;;18.13;9.30;;;12.50;1.00;;;;;;4996811;28;20034;-91
2022/04/14 06:54:50;;;;;;;15.60;9.95;;;12.60;1.00;;;;;;4996809;28;20022;-91
2022/04/14 06:57:16;;;;;;;16.92;10.63;;;12.80;1.00;;;;;;4997391;28;20497;-91
2022/04/14 06:59:42;;;;;;;23.48;10.82;;;12.90;1.00;;;;;;4994408;28;20031;-91
2022/04/14 07:02:08;;;;;;;16.40;9.82;;;12.80;1.00;;;;;;5007389;28;20050;-91
2022/04/14 07:04:34;;;;;;;18.63;11.13;;;12.80;1.00;;;;;;5004729;28;20124;-91
2022/04/14 07:07:00;;;;;;;19.45;11.05;;;12.80;1.00;;;;;;5005290;28;20088;-91
2022/04/14 07:09:28;;;;;;;15.55;10.60;;;13.00;1.00;;;;;;5004488;28;20030;-91
2022/04/14 07:11:54;;;;;;;19.77;10.75;;;13.10;1.00;;;;;;5007307;28;20026;-91
2022/04/14 07:14:19;;;;;;;15.32;10.90;;;13.20;1.00;;;;;;4990465;28;20034;-91
2022/04/14 07:16:45;;;;;;;14.05;10.25;;;13.10;1.00;;;;;;5006750;28;20029;-91
2022/04/14 07:19:11;;;;;;;14.85;9.52;;;13.10;1.00;;;;;;5004674;28;20046;-91
2022/04/14 07:21:36;;;;;;;12.90;10.85;;;13.10;1.00;;;;;;4987631;28;20490;-91
2022/04/14 07:24:02;;;;;;;14.63;10.48;;;13.20;1.00;;;;;;5006124;28;20019;-91
2022/04/14 07:26:28;;;;;;;12.13;9.93;;;13.30;1.00;;;;;;5007980;28;20390;-91
2022/04/14 07:28:53;;;;;;;12.38;10.45;;;13.30;1.00;;;;;;5006744;28;20437;-91
2022/04/14 07:31:19;;;;;;;14.25;9.82;;;13.30;1.00;;;;;;5005505;28;20395;-91
2022/04/14 07:33:44;;;;;;;13.90;9.57;;;13.30;1.00;;;;;;5003113;28;20034;-91
2022/04/14 07:36:11;;;;;;;15.13;9.82;;;13.40;1.00;;;;;;4996638;28;20386;-91
2022/04/14 07:38:36;;;;;;;15.65;10.23;;;13.50;1.00;;;;;;4991930;28;20046;-91
2022/04/14 07:41:05;;;;;;;15.30;9.65;;;13.50;1.00;;;;;;4997761;28;20026;-91
2022/04/14 07:43:32;;;;;;;13.02;9.40;;;13.60;1.00;;;;;;5000453;28;20033;-91
2022/04/14 07:45:57;;;;;;;10.95;8.15;;;13.60;1.00;;;;;;5000202;28;20030;-90
2022/04/14 07:48:23;;;;;;;17.30;10.23;;;13.60;1.00;;;;;;4999825;28;20482;-90
2022/04/14 07:50:49;;;;;;;13.77;10.32;;;13.70;1.00;;;;;;4997315;28;20029;-91
2022/04/14 07:53:15;;;;;;;20.42;11.32;;;13.80;1.00;;;;;;4997189;28;20077;-90
2022/04/14 07:55:41;;;;;;;19.65;11.77;;;14.00;1.00;;;;;;5000111;28;20030;-90
2022/04/14 07:58:07;;;;;;;15.90;11.55;;;14.00;1.00;;;;;;4999679;28;20049;-90
2022/04/14 08:00:37;;;;;;;15.00;11.40;;;14.00;1.00;;;;;;5000366;28;20043;-92
2022/04/14 08:03:04;;;;;;;16.80;11.25;;;14.00;1.00;;;;;;4998021;28;20065;-90
2022/04/14 08:05:38;;;;;;;23.15;12.20;;;14.10;1.00;;;;;;4996488;28;20054;-91
2022/04/14 08:08:09;;;;;;;15.18;11.40;;;14.30;1.00;;;;;;4998885;28;20113;-91
2022/04/14 08:10:35;;;;;;;16.08;11.68;;;14.40;1.00;;;;;;5008396;28;20038;-91
2022/04/14 08:13:01;;;;;;;16.08;11.15;;;14.40;1.00;;;;;;5003774;28;20042;-92
2022/04/14 08:15:28;;;;;;;13.77;11.27;;;14.50;1.00;;;;;;4999407;28;20049;-91
2022/04/14 08:17:55;;;;;;;16.25;11.00;;;14.50;1.00;;;;;;4996959;28;20034;-91
2022/04/14 08:20:21;;;;;;;13.73;10.07;;;14.60;1.00;;;;;;4996858;28;20030;-91
2022/04/14 08:22:50;;;;;;;15.68;11.05;;;14.80;1.00;;;;;;4998904;28;20463;-91
2022/04/14 08:25:20;;;;;;;16.17;11.65;;;14.80;1.00;;;;;;4999778;28;20030;-90
2022/04/14 08:27:47;;;;;;;13.27;10.80;;;14.80;1.00;;;;;;4999269;28;20179;-91
2022/04/14 08:30:14;;;;;;;12.68;10.80;;;14.80;1.00;;;;;;4998736;28;20062;-91
2022/04/14 08:32:40;;;;;;;15.88;11.30;;;14.80;1.00;;;;;;4995648;28;20030;-91
2022/04/14 08:35:06;;;;;;;15.02;10.45;;;14.90;1.00;;;;;;4998264;28;20073;-91
2022/04/14 08:37:32;;;;;;;12.43;10.73;;;15.20;1.00;;;;;;4998653;28;20027;-91
2022/04/14 08:39:58;;;;;;;15.73;10.50;;;15.20;1.00;;;;;;4999063;28;20041;-91
2022/04/14 08:42:51;;;;;;;15.35;10.90;;;15.30;1.00;;;;;;4999417;28;20018;-90
2022/04/14 08:45:21;;;;;;;12.70;9.80;;;15.40;1.00;;;;;;4998917;28;20022;-91
2022/04/14 08:47:49;;;;;;;15.25;9.30;;;15.40;1.00;;;;;;4996217;28;20038;-91
2022/04/14 08:50:15;;;;;;;12.90;10.10;;;15.50;1.00;;;;;;4996122;28;20471;-91
2022/04/14 08:52:42;;;;;;;16.23;10.00;;;15.60;1.00;;;;;;4996565;28;20034;-91
2022/04/14 08:55:10;;;;;;;12.55;8.98;;;15.70;1.00;;;;;;4998871;28;20022;-91
2022/04/14 08:57:36;;;;;;;14.38;9.45;;;15.80;1.00;;;;;;4998511;28;20505;-91
2022/04/14 09:00:06;;;;;;;16.08;9.32;;;15.80;1.00;;;;;;4997250;28;20038;-91
2022/04/14 09:02:33;;;;;;;11.90;7.70;;;15.80;1.00;;;;;;4995040;28;20149;-91
2022/04/14 09:04:59;;;;;;;14.10;8.13;;;15.90;1.00;;;;;;4997125;28;20039;-91
2022/04/14 09:07:25;;;;;;;14.20;8.23;;;16.10;1.00;;;;;;4981402;28;20034;-91
2022/04/14 09:09:51;;;;;;;10.85;7.88;;;16.00;1.00;;;;;;4998936;28;20026;-91
2022/04/14 09:12:17;;;;;;;9.00;7.05;;;16.20;1.00;;;;;;4998449;28;20108;-91
2022/04/14 09:14:43;;;;;;;11.13;7.22;;;16.20;1.00;;;;;;4994595;28;20026;-92
2022/04/14 09:17:09;;;;;;;13.57;6.97;;;16.30;1.00;;;;;;4997408;28;20037;-91
2022/04/14 09:19:36;;;;;;;11.57;7.43;;;16.30;1.00;;;;;;4998293;28;20065;-91
2022/04/14 09:22:05;;;;;;;11.48;6.90;;;16.50;1.00;;;;;;4998180;28;20081;-90
2022/04/14 09:24:49;;;;;;;11.38;7.35;;;16.70;1.00;;;;;;4998256;28;20084;-91
2022/04/14 09:27:33;;;;;;;13.20;7.35;;;16.80;1.00;;;;;;4998008;28;20022;-91
2022/04/14 09:30:04;;;;;;;11.70;6.90;;;16.70;1.00;;;;;;4996075;28;20479;-91
2022/04/14 09:32:37;;;;;;;12.48;6.88;;;16.90;1.00;;;;;;4994972;28;20045;-91
2022/04/14 09:35:17;;;;;;;10.50;6.65;;;17.00;1.00;;;;;;4997223;28;20026;-91
2022/04/14 09:37:43;;;;;;;11.13;6.25;;;17.00;1.00;;;;;;5007239;28;20117;-89
2022/04/14 09:40:10;;;;;;;13.00;7.78;;;17.10;1.00;;;;;;5005999;28;20121;-89
2022/04/14 09:42:41;;;;;;;12.63;7.47;;;17.00;1.00;;;;;;5006251;28;20021;-92
2022/04/14 09:45:21;;;;;;;10.48;7.88;;;17.00;1.00;;;;;;5006500;28;20065;-91
2022/04/14 09:47:52;;;;;;;12.43;8.35;;;17.20;1.00;;;;;;4994374;28;20038;-91
2022/04/14 09:50:26;;;;;;;11.55;9.00;;;17.10;1.00;;;;;;4996208;28;20391;-91
2022/04/14 09:53:05;;;;;;;15.00;8.10;;;17.00;1.00;;;;;;4997049;28;20105;-92
2022/04/14 09:55:35;;;;;;;9.55;7.38;;;17.30;1.00;;;;;;4998327;28;20097;-91
2022/04/14 09:58:08;;;;;;;14.02;7.68;;;17.60;1.00;;;;;;4997644;28;20042;-91
2022/04/14 10:00:44;;;;;;;9.60;7.65;;;17.60;1.00;;;;;;4997455;28;20030;-92
2022/04/14 10:03:12;;;;;;;11.45;7.20;;;17.60;1.00;;;;;;4994091;28;20050;-91
2022/04/14 10:05:39;;;;;;;13.48;8.50;;;17.90;1.00;;;;;;4994427;28;20026;-92
2022/04/14 10:08:08;;;;;;;10.50;7.30;;;18.20;1.00;;;;;;5007786;28;20022;-91
2022/04/14 10:10:38;;;;;;;10.80;8.15;;;18.20;1.00;;;;;;4997118;28;20030;-92
2022/04/14 10:13:09;;;;;;;11.63;7.65;;;18.20;1.00;;;;;;4998490;28;20521;-93
2022/04/14 10:15:40;;;;;;;9.57;6.70;;;18.20;1.00;;;;;;4996142;28;20022;-92
2022/04/14 10:18:09;;;;;;;9.70;6.50;;;18.50;1.00;;;;;;5007899;28;20172;-93
2022/04/14 10:20:39;;;;;;;8.80;6.15;;;19.10;1.00;;;;;;4992914;28;20494;-93
2022/04/14 10:23:07;;;;;;;9.20;6.82;;;19.90;1.00;;;;;;5010984;28;20092;-92
2022/04/14 10:25:36;;;;;;;10.10;6.88;;;19.80;1.00;;;;;;5004529;28;20521;-94
2022/04/14 10:28:03;;;;;;;11.30;8.02;;;20.70;1.00;;;;;;5001268;28;20046;-92
2022/04/14 10:30:29;;;;;;;10.70;7.75;;;21.30;1.00;;;;;;4996656;28;20085;-93
2022/04/14 10:32:56;;;;;;;7.95;6.72;;;21.90;1.00;;;;;;4976781;28;20023;-93
2022/04/14 10:35:26;;;;;;;10.23;6.18;;;22.10;1.00;;;;;;4994485;28;20022;-94
2022/04/14 10:38:14;;;;;;;10.07;6.22;;;22.40;1.00;;;;;;4996098;28;20501;-93
2022/04/14 10:40:59;;;;;;;8.48;5.95;;;23.10;1.00;;;;;;4997330;28;20524;-91
2022/04/14 10:43:26;;;;;;;8.18;5.90;;;23.40;1.00;;;;;;5004217;28;20041;-90
2022/04/14 10:45:53;;;;;;;9.23;5.78;;;23.60;1.00;;;;;;5004981;28;20498;-90
2022/04/14 10:48:36;;;;;;;9.48;4.95;;;23.70;1.00;;;;;;5007683;28;20034;-90
2022/04/14 10:51:24;;;;;;;7.80;5.10;;;24.00;1.00;;;;;;4996381;28;20112;-91
2022/04/14 10:53:59;;;;;;;7.93;5.10;;;24.40;1.00;;;;;;4994686;28;20022;-91
2022/04/14 10:56:33;;;;;;;8.43;4.72;;;24.30;1.00;;;;;;5008098;28;20018;-90
2022/04/14 10:59:12;;;;;;;6.50;4.60;;;23.80;1.00;;;;;;4996313;28;20486;-92
2022/04/14 11:01:46;;;;;;;8.43;5.00;;;23.90;1.00;;;;;;5006255;28;20141;-91
2022/04/14 11:04:24;;;;;;;6.22;4.35;;;24.10;1.00;;;;;;5005591;28;20050;-91
2022/04/14 11:06:51;;;;;;;6.95;4.15;;;24.90;1.00;;;;;;5005444;28;20556;-91
2022/04/14 11:09:51;;;;;;;8.77;3.92;;;25.50;1.00;;;;;;5007608;28;20036;-90
2022/04/14 11:12:21;;;;;;;5.72;3.60;;;25.70;1.00;;;;;;4997239;28;20026;-91
2022/04/14 11:14:47;;;;;;;6.90;4.07;;;25.50;1.00;;;;;;4993480;28;20109;-91
2022/04/14 11:17:37;;;;;;;5.05;3.65;;;26.20;1.00;;;;;;4998753;28;20026;-91
2022/04/14 11:20:22;;;;;;;5.85;3.13;;;26.90;1.00;;;;;;5000670;28;20446;-89
2022/04/14 11:23:12;;;;;;;5.25;2.72;;;27.50;1.00;;;;;;5010185;28;20032;-91
2022/04/14 11:25:41;;;;;;;8.65;3.45;;;27.10;1.00;;;;;;5000215;28;20018;-92
2022/04/14 11:28:30;;;;;;;5.60;3.03;;;26.90;1.00;;;;;;5000204;28;20073;-91
2022/04/14 11:31:25;;;;;;;3.72;2.85;;;27.60;1.00;;;;;;5000115;28;20028;-90
2022/04/14 11:33:53;;;;;;;5.32;3.05;;;27.40;1.00;;;;;;4979959;28;20042;-90
2022/04/14 11:36:20;;;;;;;7.45;2.90;;;27.80;1.00;;;;;;5000570;28;20033;-90
2022/04/14 11:39:01;;;;;;;5.15;2.47;;;28.80;1.00;;;;;;4996649;28;20065;-90
2022/04/14 11:41:38;;;;;;;6.35;2.95;;;28.70;1.00;;;;;;4997735;28;20102;-91
2022/04/14 11:44:09;;;;;;;4.95;2.17;;;28.90;1.00;;;;;;4999159;28;20034;-91
2022/04/14 11:46:39;;;;;;;5.38;2.83;;;29.60;1.00;;;;;;4999986;28;20034;-91
2022/04/14 11:49:06;;;;;;;6.10;2.53;;;29.20;1.00;;;;;;4999939;28;20058;-90
2022/04/14 11:51:32;;;;;;;5.60;2.47;;;29.40;1.00;;;;;;5000085;28;20030;-90
2022/04/14 11:53:57;;;;;;;5.95;2.67;;;29.70;1.00;;;;;;4997767;28;20037;-90
2022/04/14 11:56:27;;;;;;;3.90;2.45;;;29.60;1.00;;;;;;4997502;28;20319;-91
2022/04/14 11:58:53;;;;;;;6.13;2.80;;;30.00;1.00;;;;;;4998840;28;20060;-91
2022/04/14 12:01:19;;;;;;;5.78;2.25;;;29.50;1.00;;;;;;4999795;28;20030;-90
2022/04/14 12:03:46;;;;;;;7.75;2.78;;;29.80;1.00;;;;;;4999774;28;20137;-91
2022/04/14 12:06:16;;;;;;;6.95;2.72;;;30.40;1.00;;;;;;4999299;28;20505;-90
2022/04/14 12:08:51;;;;;;;6.13;2.67;;;31.60;1.00;;;;;;4995782;28;20077;-90
2022/04/14 12:11:17;;;;;;;4.63;2.53;;;31.80;1.00;;;;;;4997578;28;20348;-91
2022/04/14 12:13:43;;;;;;;5.28;2.67;;;31.60;1.00;;;;;;5008095;28;20442;-90
2022/04/14 12:16:10;;;;;;;4.65;2.50;;;30.30;1.00;;;;;;5007681;28;20033;-91
2022/04/14 12:18:38;;;;;;;10.25;2.60;;;29.10;1.00;;;;;;5007362;28;20042;-91
2022/04/14 12:21:07;;;;;;;6.95;2.97;;;30.20;1.00;;;;;;5008753;28;20498;-90
2022/04/14 12:23:33;;;;;;;5.97;2.35;;;29.50;1.00;;;;;;5011320;28;20030;-90
2022/04/14 12:26:04;;;;;;;6.15;2.72;;;30.40;1.00;;;;;;5009062;28;20030;-90
2022/04/14 12:28:29;;;;;;;7.18;2.90;;;30.60;1.00;;;;;;5007231;28;20037;-90
2022/04/14 12:30:55;;;;;;;5.07;2.40;;;31.60;1.00;;;;;;5007578;28;20030;-90
2022/04/14 12:33:27;;;;;;;6.47;2.40;;;31.80;1.00;;;;;;5007203;28;20121;-90
2022/04/14 12:36:05;;;;;;;5.47;2.35;;;32.60;1.00;;;;;;5010136;28;20387;-90
2022/04/14 12:38:41;;;;;;;5.07;2.50;;;31.00;1.00;;;;;;5010802;28;20124;-91
2022/04/14 12:41:12;;;;;;;6.40;2.42;;;30.70;1.00;;;;;;5009219;28;20063;-91
2022/04/14 12:43:40;;;;;;;5.32;2.78;;;31.50;1.00;;;;;;5007462;28;20033;-91
2022/04/14 12:46:28;;;;;;;7.45;2.65;;;31.80;1.00;;;;;;5003260;28;20057;-90
2022/04/14 12:49:10;;;;;;;5.90;2.80;;;30.60;1.00;;;;;;4999041;28;20030;-91
2022/04/14 12:51:42;;;;;;;5.32;2.60;;;30.20;1.00;;;;;;4999545;28;20014;-91
2022/04/14 12:54:14;;;;;;;5.10;2.65;;;27.40;1.00;;;;;;4998023;28;20372;-90
2022/04/14 12:56:40;;;;;;;6.60;2.80;;;27.80;1.00;;;;;;4995540;28;20050;-90